INFORMAÇÕES METEOROLÓGICAS
METAR FOR SBCF
ADDS - METARS form results

(1407 UTC 20 April 2018)
Data provider http://aviationweather.gov/adds/metars/
 
METAR text: SBCF 201400Z 11003KT 9999 FEW030 24/13 Q1023
Conditions at: SBCF (BELO HORIZ/TANCR, BR) observed 1400 UTC 20 April 2018
Temperature: 24.0°C (75°F)
Dewpoint: 13.0°C (55°F) [RH = 50%]
Pressure (altimeter): 30.21 inches Hg (1023.0 mb)
Winds: from the ESE (110 degrees) at 3 MPH (3 knots; 1.6 m/s)
Visibility: 6 or more miles (10+ km)
Ceiling: at least 12,000 feet AGL
Clouds: few clouds at 3000 feet AGL
Weather: no significant weather observed at this time

Forecast for: SBCF (BELO HORIZ/TANCR, BR)
Text: TAF SBCF 201000Z 2012/2112 10007KT CAVOK TX25/2018Z TN15/2106Z
Forecast period: 1200 to 1400 UTC 20 April 2018
Forecast type: FROM: standard forecast or significant change
Winds: from the E (100 degrees) at 8 MPH (7 knots; 3.6 m/s)
Visibility: 6 or more miles (10+ km)
Clouds: not forecast
Weather: no significant weather forecast for this period
Forecast for: SBCF (BELO HORIZ/TANCR, BR)
Text: TAF SBCF 201000Z 2012/2112 10007KT CAVOK TX25/2018Z TN15/2106Z
Forecast period: 1200 to 1400 UTC 20 April 2018
Forecast type: FROM: standard forecast or significant change
Winds: from the E (100 degrees) at 8 MPH (7 knots; 3.6 m/s)
Visibility: 6 or more miles (10+ km)
Clouds: not forecast
Weather: no significant weather forecast for this period
Forecast for: SBCF (BELO HORIZ/TANCR, BR)
Text: TAF SBCF 201000Z 2012/2112 10007KT CAVOK TX25/2018Z TN15/2106Z
Forecast period: 1400 to 2100 UTC 20 April 2018
Forecast type: BECOMING: Conditions expected to become as follows by 1600 UTC 20 April 2018
Winds: from the NE (50 degrees) at 12 MPH (10 knots; 5.2 m/s)
Visibility: 6 or more miles (10+ km)
Ceiling: 3500 feet AGL
Clouds: broken clouds at 3500 feet AGL
Weather: no significant weather forecast for this period
Forecast for: SBCF (BELO HORIZ/TANCR, BR)
Text: TAF SBCF 201000Z 2012/2112 10007KT CAVOK TX25/2018Z TN15/2106Z
Forecast period: 1400 to 2100 UTC 20 April 2018
Forecast type: BECOMING: Conditions expected to become as follows by 1600 UTC 20 April 2018
Winds: from the NE (50 degrees) at 12 MPH (10 knots; 5.2 m/s)
Visibility: 6 or more miles (10+ km)
Ceiling: 3500 feet AGL
Clouds: broken clouds at 3500 feet AGL
Weather: no significant weather forecast for this period
Forecast for: SBCF (BELO HORIZ/TANCR, BR)
Text: TAF SBCF 201000Z 2012/2112 10007KT CAVOK TX25/2018Z TN15/2106Z
Forecast period: 2100 UTC 20 April 2018 to 0100 UTC 21 April 2018
Forecast type: BECOMING: Conditions expected to become as follows by 2300 UTC 20 April 2018
Winds: from the ENE (60 degrees) at 8 MPH (7 knots; 3.6 m/s)
Visibility: 6 or more miles (10+ km)
Weather: NSW  (no significant weather)
Forecast for: SBCF (BELO HORIZ/TANCR, BR)
Text: TAF SBCF 201000Z 2012/2112 10007KT CAVOK TX25/2018Z TN15/2106Z
Forecast period: 2100 UTC 20 April 2018 to 0100 UTC 21 April 2018
Forecast type: BECOMING: Conditions expected to become as follows by 2300 UTC 20 April 2018
Winds: from the ENE (60 degrees) at 8 MPH (7 knots; 3.6 m/s)
Visibility: 6 or more miles (10+ km)
Weather: NSW  (no significant weather)
Forecast for: SBCF (BELO HORIZ/TANCR, BR)
Text: TAF SBCF 201000Z 2012/2112 10007KT CAVOK TX25/2018Z TN15/2106Z
Forecast period: 0100 to 1200 UTC 21 April 2018
Forecast type: BECOMING: Conditions expected to become as follows by 0300 UTC 21 April 2018
Winds: from the SE (130 degrees) at 8 MPH (7 knots; 3.6 m/s)
Visibility: 6 or more miles (10+ km)
Weather: NSW  (no significant weather)
Forecast for: SBCF (BELO HORIZ/TANCR, BR)
Text: TAF SBCF 201000Z 2012/2112 10007KT CAVOK TX25/2018Z TN15/2106Z
Forecast period: 0100 to 1200 UTC 21 April 2018
Forecast type: BECOMING: Conditions expected to become as follows by 0300 UTC 21 April 2018
Winds: from the SE (130 degrees) at 8 MPH (7 knots; 3.6 m/s)
Visibility: 6 or more miles (10+ km)
Weather: NSW  (no significant weather)

 MAPA DO AEROPORTO

 INFORMAÇÕES DA PISTA
Pista 16 Tamanho da pista 9843 ft Largura da pista 148 ft
Elevação da pista 2712 ft Ranhura da pista 0 ft Proa da pista 139
Pista 34 Tamanho da pista 9843 ft Largura da pista 148 ft
Elevação da pista 2712 ft Ranhura da pista 0 ft Proa da pista 319

 FREQUÊNCIAS DO AEROPORTO
Tipo APP Nome BELO HORIZ Frequência 120.2 MHZ
Tipo ATIS Nome BELO HORIZ Frequência 127.45 MHZ
Tipo CLD Nome CONFINS CL Frequência 121 MHZ
Tipo GND Nome GND Frequência 121.9 MHZ
Tipo OPS Nome BELO HORIZ Frequência 122.5 MHZ
Tipo TWR Nome CONFINS TW Frequência 118.2 MHZ

 AUXÍLIOS DE NAVEGAÇÃO PRÓXIMOS AO AEROPORTO
Tipo VOR-DME Nome Confins Frequência 114400 KHZ



Powered by Mercosul Lnhas Aereas